Time;durP1;ratioP1;P1;durP2;ratioP2;P2;SDS_P1;SDS_P2;PMS_P1;PMS_P2;Temp;Humidity;BMP_temperature;BMP_pressure;BME280_temperature;BME280_humidity;BME280_pressure;Samples;Min_cycle;Max_cycle;Signal;HPM_P1;HPM_P2
2020/12/13 00:02:06;;;;;;;4.23;3.87;;;;;;;6.91;100.00;97705.50;5084916;28;20213;-76
2020/12/13 00:04:33;;;;;;;5.53;4.30;;;;;;;6.96;100.00;97707.81;5060680;28;20657;-75
2020/12/13 00:07:00;;;;;;;5.13;3.90;;;;;;;6.97;100.00;97699.81;5071912;28;20237;-76
2020/12/13 00:09:27;;;;;;;3.80;3.50;;;;;;;6.97;100.00;97709.47;5084042;28;20253;-76
2020/12/13 00:11:54;;;;;;;6.83;6.23;;;;;;;6.90;100.00;97713.53;5082858;28;20204;-76
2020/12/13 00:14:22;;;;;;;4.03;3.63;;;;;;;6.96;100.00;97713.06;5079695;28;20222;-76
2020/12/13 00:16:52;;;;;;;4.00;3.60;;;;;;;6.98;100.00;97706.75;5085560;28;20213;-75
2020/12/13 00:19:19;;;;;;;5.17;4.67;;;;;;;7.01;100.00;97705.69;5066793;28;20193;-75
2020/12/13 00:21:49;;;;;;;3.73;3.43;;;;;;;7.03;100.00;97716.91;5085951;28;20211;-76
2020/12/13 00:24:16;;;;;;;3.80;3.50;;;;;;;7.03;100.00;97716.91;5071477;28;20242;-75
2020/12/13 00:26:44;;;;;;;4.43;4.03;;;;;;;7.02;100.00;97720.47;5082117;28;20242;-75
2020/12/13 00:29:12;;;;;;;5.67;3.93;;;;;;;7.01;100.00;97726.72;5085192;28;20240;-76
2020/12/13 00:31:39;;;;;;;5.00;4.50;;;;;;;7.03;100.00;97727.41;5085191;28;20607;-75
2020/12/13 00:34:08;;;;;;;9.57;6.67;;;;;;;6.86;100.00;97727.81;5066998;28;20530;-76
2020/12/13 00:36:35;;;;;;;7.30;6.60;;;;;;;6.69;100.00;97730.81;5079726;28;20204;-76
2020/12/13 00:39:04;;;;;;;9.10;7.60;;;;;;;6.62;100.00;97721.72;5084573;28;20216;-75
2020/12/13 00:41:32;;;;;;;8.73;6.87;;;;;;;6.71;100.00;97728.94;5038402;28;20629;-76
2020/12/13 00:43:59;;;;;;;5.40;4.90;;;;;;;6.86;100.00;97733.06;5065332;28;20704;-76
2020/12/13 00:46:27;;;;;;;4.73;4.33;;;;;;;6.90;100.00;97734.53;5064448;28;20209;-76
2020/12/13 00:48:55;;;;;;;5.23;4.73;;;;;;;6.93;100.00;97739.56;5078253;28;20234;-75
2020/12/13 00:51:26;;;;;;;5.03;4.53;;;;;;;6.93;100.00;97742.19;5063325;28;20558;-75
2020/12/13 00:53:56;;;;;;;5.17;4.67;;;;;;;6.92;100.00;97748.38;5058675;28;20320;-75
2020/12/13 00:56:23;;;;;;;5.93;5.37;;;;;;;6.85;100.00;97747.97;5031814;28;20233;-76
2020/12/13 00:58:52;;;;;;;7.93;7.00;;;;;;;6.81;100.00;97748.31;5066109;28;20215;-75
2020/12/13 01:01:22;;;;;;;4.60;4.20;;;;;;;6.85;100.00;97752.38;5066612;28;20226;-75
2020/12/13 01:03:49;;;;;;;9.03;7.27;;;;;;;6.77;100.00;97752.09;5044399;28;20205;-76
2020/12/13 01:06:21;;;;;;;9.23;7.73;;;;;;;6.49;100.00;97755.00;5079727;28;20262;-76
2020/12/13 01:08:50;;;;;;;5.27;4.77;;;;;;;6.65;100.00;97766.94;5078860;28;20259;-75
2020/12/13 01:11:25;;;;;;;6.47;5.87;;;;;;;6.70;100.00;97764.00;5084432;28;20217;-76
2020/12/13 01:13:54;;;;;;;5.70;5.13;;;;;;;6.76;100.00;97774.91;5043689;28;20228;-75
2020/12/13 01:16:21;;;;;;;8.40;7.67;;;;;;;6.61;100.00;97775.13;5074840;28;20209;-76
2020/12/13 01:18:49;;;;;;;10.13;8.60;;;;;;;6.43;100.00;97771.19;5077501;28;20209;-75
2020/12/13 01:21:18;;;;;;;8.93;8.03;;;;;;;6.46;100.00;97773.63;5084213;28;20221;-75
2020/12/13 01:23:45;;;;;;;6.33;5.73;;;;;;;6.59;100.00;97777.03;5065038;28;20224;-76
2020/12/13 01:26:14;;;;;;;5.80;5.00;;;;;;;6.66;100.00;97778.25;5081540;28;20201;-75
2020/12/13 01:28:42;;;;;;;4.60;4.20;;;;;;;6.72;100.00;97788.34;5077669;28;20312;-75
2020/12/13 01:31:13;;;;;;;8.30;7.50;;;;;;;6.56;100.00;97788.59;5078404;28;20650;-75
2020/12/13 01:33:40;;;;;;;5.70;4.93;;;;;;;6.65;100.00;97787.91;5083692;28;20752;-75
2020/12/13 01:36:10;;;;;;;8.37;7.43;;;;;;;6.46;100.00;97794.59;5081668;28;20205;-75
2020/12/13 01:38:37;;;;;;;6.10;5.50;;;;;;;6.49;100.00;97795.19;5064692;28;20229;-76
2020/12/13 01:41:05;;;;;;;8.40;7.37;;;;;;;6.36;100.00;97795.22;5084280;28;20699;-75
2020/12/13 01:43:33;;;;;;;9.27;8.33;;;;;;;6.32;100.00;97796.38;5055555;28;20250;-75
2020/12/13 01:46:00;;;;;;;7.20;6.17;;;;;;;6.43;100.00;97804.34;5083692;28;20218;-75
2020/12/13 01:48:28;;;;;;;8.13;7.33;;;;;;;6.46;100.00;97797.22;5060573;28;20602;-75
2020/12/13 01:51:03;;;;;;;9.43;8.47;;;;;;;6.41;100.00;97795.75;5080792;28;20199;-76
2020/12/13 01:53:34;;;;;;;8.63;7.73;;;;;;;6.43;100.00;97805.31;5082055;28;20210;-75
2020/12/13 01:56:03;;;;;;;9.67;8.70;;;;;;;6.41;100.00;97805.41;5083031;28;20196;-75
2020/12/13 01:58:37;;;;;;;10.77;9.77;;;;;;;6.27;100.00;97798.50;5055330;28;20571;-75
2020/12/13 02:01:06;;;;;;;8.00;7.20;;;;;;;6.34;100.00;97810.22;5087235;28;20312;-75
2020/12/13 02:03:40;;;;;;;11.33;9.77;;;;;;;6.24;100.00;97814.44;5068803;28;20627;-76
2020/12/13 02:06:15;;;;;;;7.57;6.67;;;;;;;6.40;100.00;97808.94;5082016;28;20199;-75
2020/12/13 02:08:42;;;;;;;9.63;7.60;;;;;;;6.53;100.00;97819.44;5087271;28;20204;-75
2020/12/13 02:11:10;;;;;;;6.33;5.73;;;;;;;6.54;100.00;97821.97;5069376;28;20202;-75
2020/12/13 02:13:38;;;;;;;5.53;5.03;;;;;;;6.61;100.00;97822.38;5075643;28;20202;-76
2020/12/13 02:16:06;;;;;;;5.47;4.87;;;;;;;6.66;100.00;97815.00;5065059;28;20193;-75
2020/12/13 02:18:34;;;;;;;9.50;7.07;;;;;;;6.68;100.00;97821.00;5083377;28;20690;-75
2020/12/13 02:21:04;;;;;;;5.40;4.90;;;;;;;6.68;100.00;97821.84;5068472;28;20216;-75
2020/12/13 02:23:46;;;;;;;4.80;4.40;;;;;;;6.72;100.00;97825.09;5084506;28;20654;-75
2020/12/13 02:26:15;;;;;;;6.03;5.40;;;;;;;6.70;100.00;97832.25;5088212;28;20219;-76
2020/12/13 02:28:43;;;;;;;5.17;4.77;;;;;;;6.66;100.00;97830.75;5081628;28;20212;-76
2020/12/13 02:31:10;;;;;;;4.83;4.43;;;;;;;6.71;100.00;97821.63;5075979;28;20322;-75
2020/12/13 02:33:38;;;;;;;6.17;5.57;;;;;;;6.67;100.00;97828.03;5086826;28;20209;-75
2020/12/13 02:36:05;;;;;;;4.77;4.37;;;;;;;6.75;100.00;97836.22;5087956;28;20239;-76
2020/12/13 02:38:33;;;;;;;6.73;6.03;;;;;;;6.71;100.00;97841.81;5085275;28;20207;-76
2020/12/13 02:41:02;;;;;;;7.80;7.10;;;;;;;6.61;100.00;97838.97;5062295;28;20252;-75
2020/12/13 02:43:29;;;;;;;7.40;6.70;;;;;;;6.61;100.00;97846.00;5078622;28;20204;-75
2020/12/13 02:45:56;;;;;;;5.77;5.27;;;;;;;6.63;100.00;97847.56;5069387;28;20735;-75
2020/12/13 02:48:23;;;;;;;9.67;7.90;;;;;;;6.48;100.00;97847.81;5054029;28;20231;-75
2020/12/13 02:50:51;;;;;;;5.13;4.70;;;;;;;6.57;100.00;97847.16;5066704;28;21578;-76
2020/12/13 02:53:18;;;;;;;5.17;4.57;;;;;;;6.68;100.00;97844.63;5063415;28;20702;-75
2020/12/13 02:55:46;;;;;;;4.90;4.40;;;;;;;6.69;100.00;97856.78;5065521;28;20206;-75
2020/12/13 02:58:14;;;;;;;5.07;4.57;;;;;;;6.73;100.00;97858.28;5066456;28;20283;-75
2020/12/13 03:00:41;;;;;;;4.50;4.13;;;;;;;6.74;100.00;97862.56;5067238;28;20230;-75
2020/12/13 03:03:08;;;;;;;4.20;3.80;;;;;;;6.77;100.00;97863.19;5057077;28;20320;-75
2020/12/13 03:05:35;;;;;;;3.80;3.50;;;;;;;6.78;100.00;97864.03;5080560;28;20675;-76
2020/12/13 03:08:03;;;;;;;5.40;4.90;;;;;;;6.77;100.00;97865.81;5086530;28;20205;-76
2020/12/13 03:10:30;;;;;;;5.60;4.80;;;;;;;6.80;100.00;97870.00;5072826;28;20203;-75
2020/12/13 03:12:57;;;;;;;7.40;6.33;;;;;;;6.74;100.00;97862.56;5086208;28;20284;-75
2020/12/13 03:15:25;;;;;;;7.80;7.10;;;;;;;6.57;100.00;97868.97;5086175;28;20244;-76
2020/12/13 03:17:52;;;;;;;5.70;5.20;;;;;;;6.69;100.00;97864.66;5085198;28;20231;-75
2020/12/13 03:20:18;;;;;;;7.03;6.33;;;;;;;6.68;100.00;97861.19;5075442;28;20333;-75
2020/12/13 03:22:46;;;;;;;6.37;5.77;;;;;;;6.67;100.00;97869.19;5084743;28;20203;-75
2020/12/13 03:25:13;;;;;;;9.63;7.53;;;;;;;6.51;100.00;97873.84;5086024;28;20725;-75
2020/12/13 03:27:41;;;;;;;5.90;5.40;;;;;;;6.62;100.00;97874.78;5060012;28;20574;-75
2020/12/13 03:30:08;;;;;;;5.37;4.87;;;;;;;6.69;100.00;97875.16;5082871;28;20201;-76
2020/12/13 03:32:36;;;;;;;4.87;4.13;;;;;;;6.74;100.00;97878.31;5086081;28;20217;-76
2020/12/13 03:35:04;;;;;;;4.13;3.83;;;;;;;6.74;100.00;97891.44;5070640;28;20239;-75
2020/12/13 03:37:32;;;;;;;4.03;3.63;;;;;;;6.78;100.00;97887.66;5064593;28;20423;-75
2020/12/13 03:39:59;;;;;;;7.67;6.70;;;;;;;6.65;100.00;97885.03;5080761;28;20216;-76
2020/12/13 03:42:26;;;;;;;4.50;4.10;;;;;;;6.63;100.00;97888.72;5060939;28;20325;-75
2020/12/13 03:44:53;;;;;;;4.17;3.77;;;;;;;6.70;100.00;97895.25;5082775;28;20229;-76
2020/12/13 03:47:20;;;;;;;4.03;3.60;;;;;;;6.71;100.00;97894.31;5085247;28;20201;-75
2020/12/13 03:49:48;;;;;;;3.73;3.43;;;;;;;6.72;100.00;97898.59;5085710;28;20297;-75
2020/12/13 03:52:15;;;;;;;4.80;4.30;;;;;;;6.65;100.00;97894.72;5074372;28;20553;-75
2020/12/13 03:54:43;;;;;;;7.37;5.60;;;;;;;6.49;100.00;97899.31;5086240;28;20208;-75
2020/12/13 03:57:10;;;;;;;7.50;6.47;;;;;;;6.61;100.00;97901.09;5085399;28;20206;-75
2020/12/13 03:59:37;;;;;;;5.70;4.97;;;;;;;6.64;100.00;97909.63;5085180;28;20593;-75
2020/12/13 04:02:04;;;;;;;5.53;5.00;;;;;;;6.65;100.00;97913.91;5085593;28;20412;-75
2020/12/13 04:04:32;;;;;;;5.00;4.50;;;;;;;6.69;100.00;97914.53;5080268;28;20293;-75
2020/12/13 04:06:59;;;;;;;4.63;4.20;;;;;;;6.61;100.00;97916.84;5086223;28;20205;-75
2020/12/13 04:09:26;;;;;;;5.10;4.30;;;;;;;6.64;100.00;97921.91;5073042;28;20292;-75
2020/12/13 04:11:53;;;;;;;3.90;3.60;;;;;;;6.66;100.00;97925.25;5067195;28;20198;-75
2020/12/13 04:14:20;;;;;;;5.20;4.70;;;;;;;6.54;100.00;97931.34;5079500;28;20408;-76
2020/12/13 04:16:47;;;;;;;5.50;5.00;;;;;;;6.45;100.00;97939.84;5085461;28;20202;-76
2020/12/13 04:19:15;;;;;;;6.10;5.43;;;;;;;6.38;100.00;97937.63;5084604;28;20665;-76
2020/12/13 04:21:42;;;;;;;5.30;4.80;;;;;;;6.41;100.00;97940.06;5085140;28;20232;-76
2020/12/13 04:24:10;;;;;;;4.20;3.80;;;;;;;6.56;100.00;97942.59;5072122;28;20236;-75
2020/12/13 04:26:38;;;;;;;4.93;4.43;;;;;;;6.57;100.00;97946.91;5085092;28;20207;-76
2020/12/13 04:29:05;;;;;;;5.20;4.70;;;;;;;6.50;100.00;97945.63;5084267;28;20874;-75
2020/12/13 04:31:32;;;;;;;4.20;3.80;;;;;;;6.58;100.00;97948.56;5085489;28;20614;-76
2020/12/13 04:33:59;;;;;;;4.00;3.37;;;;;;;6.58;100.00;97951.19;5085132;28;20294;-75
2020/12/13 04:36:26;;;;;;;5.10;4.60;;;;;;;6.49;100.00;97957.03;5080362;28;20541;-75
2020/12/13 04:38:53;;;;;;;4.23;3.83;;;;;;;6.55;100.00;97959.25;5066055;28;20287;-75
2020/12/13 04:41:21;;;;;;;4.47;4.10;;;;;;;6.50;100.00;97950.88;5074919;28;20249;-75
2020/12/13 04:43:49;;;;;;;5.87;5.37;;;;;;;6.40;100.00;97967.22;5082383;28;20259;-76
2020/12/13 04:46:16;;;;;;;4.20;3.80;;;;;;;6.54;100.00;97963.66;5079426;28;20628;-76
2020/12/13 04:48:44;;;;;;;3.50;3.20;;;;;;;6.56;100.00;97964.44;5083960;28;20229;-76
2020/12/13 04:51:11;;;;;;;5.00;4.60;;;;;;;6.51;100.00;97968.31;5084621;28;20611;-75
2020/12/13 04:53:39;;;;;;;5.07;4.67;;;;;;;6.50;100.00;97967.47;5082197;28;20252;-75
2020/12/13 04:56:10;;;;;;;3.60;3.30;;;;;;;6.55;100.00;97959.25;5056892;28;20277;-76
2020/12/13 04:58:38;;;;;;;3.37;3.07;;;;;;;6.62;100.00;97969.25;5083961;28;20213;-76
2020/12/13 05:01:05;;;;;;;3.50;3.20;;;;;;;6.63;100.00;97967.44;5083556;28;20232;-75
2020/12/13 05:03:34;;;;;;;5.23;4.47;;;;;;;6.62;100.00;97971.03;5079640;28;20640;-75
2020/12/13 05:06:01;;;;;;;4.40;4.00;;;;;;;6.52;100.00;97964.72;5084391;28;20206;-75
2020/12/13 05:08:29;;;;;;;3.57;3.27;;;;;;;6.60;100.00;97968.50;5084082;28;20278;-75
2020/12/13 05:10:57;;;;;;;6.77;4.23;;;;;;;6.44;100.00;97970.50;5084369;28;20655;-76
2020/12/13 05:13:24;;;;;;;6.03;4.37;;;;;;;6.52;100.00;97976.06;5072296;28;20261;-75
2020/12/13 05:15:52;;;;;;;5.33;4.80;;;;;;;6.52;100.00;97980.47;5084435;28;20232;-76
2020/12/13 05:18:20;;;;;;;4.60;4.20;;;;;;;6.56;100.00;97971.44;5084257;28;20206;-76
2020/12/13 05:20:47;;;;;;;3.90;3.60;;;;;;;6.60;100.00;97983.41;5083967;28;20241;-75
2020/12/13 05:23:14;;;;;;;3.20;2.90;;;;;;;6.69;100.00;97990.66;5080744;28;20201;-76
2020/12/13 05:25:41;;;;;;;3.80;3.47;;;;;;;6.73;100.00;97989.53;5067116;28;20218;-76
2020/12/13 05:28:12;;;;;;;3.63;3.33;;;;;;;6.74;100.00;97989.41;5059531;28;20278;-77
2020/12/13 05:30:42;;;;;;;5.60;4.47;;;;;;;6.65;100.00;98002.34;5060094;28;20607;-74
2020/12/13 05:33:17;;;;;;;3.20;2.90;;;;;;;6.74;100.00;97996.44;5078255;28;20222;-76
2020/12/13 05:35:44;;;;;;;2.90;2.70;;;;;;;6.74;100.00;97996.44;5088881;28;20619;-77
2020/12/13 05:38:12;;;;;;;3.73;3.43;;;;;;;6.77;100.00;98006.72;5086217;28;20211;-77
2020/12/13 05:40:40;;;;;;;3.20;2.90;;;;;;;6.81;100.00;98008.22;5087249;28;20213;-77
2020/12/13 05:43:09;;;;;;;3.23;3.00;;;;;;;6.78;100.00;98008.44;5086031;28;20742;-77
2020/12/13 05:48:36;;;;;;;4.87;4.43;;;;;;;6.74;100.00;98017.44;5083405;28;20296;-77
2020/12/13 05:51:17;;;;;;;4.43;4.03;;;;;;;6.75;100.00;98019.13;5054570;28;20255;-77
2020/12/13 05:53:45;;;;;;;3.60;3.30;;;;;;;6.80;100.00;98017.88;5086224;28;20190;-77
2020/12/13 05:56:22;;;;;;;3.30;3.00;;;;;;;6.77;100.00;98018.09;5068579;28;20201;-77
2020/12/13 05:58:51;;;;;;;4.70;4.20;;;;;;;6.70;100.00;98022.09;5062219;28;20257;-77
2020/12/13 06:01:22;;;;;;;4.50;3.17;;;;;;;6.80;100.00;98032.78;5073303;28;20237;-77
2020/12/13 06:03:52;;;;;;;2.83;2.63;;;;;;;6.84;100.00;98034.28;5083454;28;20201;-78
2020/12/13 06:06:22;;;;;;;2.67;2.47;;;;;;;6.86;100.00;98033.22;5084824;28;20196;-77
2020/12/13 06:09:08;;;;;;;2.87;2.60;;;;;;;6.85;100.00;98035.94;5081338;28;20217;-78
2020/12/13 06:11:44;;;;;;;3.47;3.00;;;;;;;6.87;100.00;98039.31;5065428;28;20194;-78
2020/12/13 06:14:14;;;;;;;4.60;4.07;;;;;;;6.76;100.00;98040.06;5056472;28;20204;-77
2020/12/13 06:16:42;;;;;;;3.83;3.43;;;;;;;6.70;100.00;98047.47;5075440;28;20694;-78
2020/12/13 06:19:12;;;;;;;2.67;2.47;;;;;;;6.77;100.00;98049.59;5078348;28;20624;-79
2020/12/13 06:21:40;;;;;;;4.60;3.57;;;;;;;6.76;100.00;98057.56;5086978;28;20229;-79
2020/12/13 06:24:08;;;;;;;3.03;2.77;;;;;;;6.77;100.00;98056.63;5087229;28;20235;-79
2020/12/13 06:26:36;;;;;;;2.97;2.77;;;;;;;6.67;100.00;98048.53;5069903;28;20209;-80
2020/12/13 06:29:05;;;;;;;3.00;2.70;;;;;;;6.81;100.00;98058.94;5063480;28;20202;-81
2020/12/13 06:31:33;;;;;;;4.80;3.70;;;;;;;6.77;100.00;98061.88;5063243;28;20236;-77
2020/12/13 06:34:01;;;;;;;2.60;2.40;;;;;;;6.87;100.00;98065.56;5083879;28;20673;-77
2020/12/13 06:36:28;;;;;;;3.20;2.90;;;;;;;6.78;100.00;98064.41;5077944;28;20207;-77
2020/12/13 06:38:57;;;;;;;2.70;2.50;;;;;;;6.89;100.00;98066.31;5078601;28;20210;-76
2020/12/13 06:41:26;;;;;;;2.77;2.03;;;;;;;6.93;100.00;98076.47;5085168;28;20221;-78
2020/12/13 06:44:01;;;;;;;4.90;3.07;;;;;;;6.91;100.00;98072.28;5081592;28;20207;-77
2020/12/13 06:46:29;;;;;;;2.77;2.50;;;;;;;6.94;100.00;98067.66;5074309;28;20237;-79
2020/12/13 06:48:57;;;;;;;3.40;3.10;;;;;;;6.86;100.00;98074.38;5081097;28;20272;-78
2020/12/13 06:51:34;;;;;;;2.80;2.60;;;;;;;6.92;100.00;98085.31;5083756;28;20230;-79
2020/12/13 06:54:03;;;;;;;3.23;2.93;;;;;;;6.92;100.00;98090.59;5071770;28;20258;-77
2020/12/13 06:56:31;;;;;;;1.80;1.70;;;;;;;7.00;100.00;98090.06;5086412;28;20201;-77
2020/12/13 06:59:00;;;;;;;2.27;2.07;;;;;;;7.00;100.00;98097.94;5083880;28;20216;-77
2020/12/13 07:01:28;;;;;;;1.90;1.80;;;;;;;7.04;100.00;98104.69;5084562;28;20234;-77
2020/12/13 07:03:58;;;;;;;3.13;2.93;;;;;;;6.93;100.00;98102.75;5074450;28;20244;-77
2020/12/13 07:06:45;;;;;;;4.13;3.00;;;;;;;6.87;100.00;98112.84;5085630;28;20201;-77
2020/12/13 07:09:13;;;;;;;2.30;2.07;;;;;;;6.97;100.00;98116.53;5084657;28;20254;-78
2020/12/13 07:11:42;;;;;;;2.67;2.47;;;;;;;6.98;100.00;98118.22;5086920;28;20499;-76
2020/12/13 07:14:12;;;;;;;2.33;2.00;;;;;;;7.02;100.00;98122.31;5083621;28;20197;-82
2020/12/13 07:16:44;;;;;;;2.90;2.60;;;;;;;6.95;100.00;98127.13;5062876;28;20216;-83
2020/12/13 07:19:15;;;;;;;3.00;2.57;;;;;;;6.92;100.00;98126.50;5037831;28;20226;-85
2020/12/13 07:21:44;;;;;;;2.40;2.10;;;;;;;6.96;100.00;98128.00;5067685;28;20257;-82
2020/12/13 07:24:12;;;;;;;2.10;1.90;;;;;;;7.07;100.00;98135.16;5064578;28;20222;-84
2020/12/13 07:26:40;;;;;;;2.67;1.80;;;;;;;7.08;100.00;98139.44;5063920;28;20492;-83
2020/12/13 07:29:15;;;;;;;2.30;2.10;;;;;;;7.11;100.00;98142.72;5060993;28;20211;-83
2020/12/13 07:31:45;;;;;;;2.03;1.83;;;;;;;7.13;100.00;98146.06;5046132;28;20569;-83
2020/12/13 07:34:13;;;;;;;2.30;2.10;;;;;;;7.14;100.00;98149.53;5056304;28;20239;-84
2020/12/13 07:36:41;;;;;;;2.17;2.00;;;;;;;7.13;100.00;98161.00;5080967;28;20614;-84
2020/12/13 07:39:12;;;;;;;2.13;2.03;;;;;;;7.11;100.00;98161.09;5074711;28;20207;-83
2020/12/13 07:41:41;;;;;;;2.70;2.20;;;;;;;7.07;100.00;98167.50;5064274;28;20700;-83
2020/12/13 07:44:10;;;;;;;3.23;2.30;;;;;;;7.06;100.00;98165.81;5084035;28;20214;-83
2020/12/13 07:46:38;;;;;;;2.13;1.70;;;;;;;7.06;100.00;98171.06;5084373;28;20249;-85
2020/12/13 07:49:09;;;;;;;2.30;2.10;;;;;;;7.10;100.00;98183.06;5063974;28;20326;-82
2020/12/13 07:51:38;;;;;;;1.87;1.57;;;;;;;7.06;100.00;98189.47;5060585;28;20210;-82
2020/12/13 07:54:09;;;;;;;1.93;1.73;;;;;;;7.09;100.00;98181.38;5064123;28;20201;-82
2020/12/13 07:56:37;;;;;;;1.83;1.70;;;;;;;7.10;100.00;98187.47;5077253;28;20209;-84
2020/12/13 07:59:13;;;;;;;2.30;2.10;;;;;;;7.10;100.00;98187.47;5062460;28;20217;-84
2020/12/13 08:01:41;;;;;;;2.77;2.00;;;;;;;7.05;100.00;98195.63;5061270;28;20227;-87
2020/12/13 08:04:08;;;;;;;3.50;2.10;;;;;;;7.17;100.00;98194.84;5049307;28;20723;-84
2020/12/13 08:06:35;;;;;;;2.40;1.97;;;;;;;7.10;100.00;98208.50;5083546;28;20211;-86
2020/12/13 08:09:10;;;;;;;1.90;1.80;;;;;;;7.11;100.00;98200.50;5078311;28;20348;-82
2020/12/13 08:11:38;;;;;;;1.80;1.70;;;;;;;7.17;100.00;98207.97;5084066;28;20235;-90
2020/12/13 08:14:06;;;;;;;3.43;2.33;;;;;;;7.12;100.00;98207.44;5080611;28;20211;-83
2020/12/13 08:16:35;;;;;;;1.80;1.70;;;;;;;7.09;100.00;98212.91;5084178;28;20740;-83
2020/12/13 08:19:09;;;;;;;3.00;2.80;;;;;;;6.96;100.00;98217.28;5074703;28;20251;-85
2020/12/13 08:21:51;;;;;;;2.40;2.20;;;;;;;7.04;100.00;98220.25;5080012;28;20248;-82
2020/12/13 08:24:19;;;;;;;4.50;3.83;;;;;;;7.01;100.00;98215.19;5058388;28;20202;-82
2020/12/13 08:26:49;;;;;;;3.37;3.07;;;;;;;7.00;100.00;98218.75;5081241;28;20232;-81
2020/12/13 08:29:17;;;;;;;5.27;4.00;;;;;;;7.04;100.00;98217.63;5080000;28;20217;-80
2020/12/13 08:31:45;;;;;;;4.77;4.33;;;;;;;7.04;100.00;98220.25;5048390;28;20230;-82
2020/12/13 08:34:12;;;;;;;4.27;3.77;;;;;;;7.13;100.00;98224.06;5081822;28;20215;-82
2020/12/13 08:36:39;;;;;;;5.13;4.63;;;;;;;7.02;100.00;98223.91;5046551;28;20239;-81
2020/12/13 08:39:09;;;;;;;5.57;4.90;;;;;;;7.09;100.00;98228.66;5078635;28;20506;-81
2020/12/13 08:41:43;;;;;;;3.50;3.20;;;;;;;7.17;100.00;98233.41;5083895;28;20225;-81
2020/12/13 08:44:25;;;;;;;3.87;3.57;;;;;;;7.21;100.00;98233.13;5082323;28;20201;-81
2020/12/13 08:46:54;;;;;;;5.67;5.17;;;;;;;7.17;100.00;98236.88;5063559;28;20427;-80
2020/12/13 08:49:25;;;;;;;5.17;4.57;;;;;;;7.30;100.00;98240.38;5055181;28;20308;-85
2020/12/13 08:51:53;;;;;;;5.60;5.10;;;;;;;7.29;100.00;98246.59;5044109;28;20207;-81
2020/12/13 08:54:20;;;;;;;6.10;5.50;;;;;;;7.37;100.00;98239.03;5074560;28;20207;-80
2020/12/13 08:57:03;;;;;;;4.30;3.90;;;;;;;7.45;100.00;98242.00;5076444;28;20297;-81
2020/12/13 08:59:30;;;;;;;5.73;5.20;;;;;;;7.47;100.00;98244.50;5080520;28;20203;-83
2020/12/13 09:02:02;;;;;;;4.40;4.00;;;;;;;7.55;100.00;98248.31;5081617;28;20229;-82
2020/12/13 09:04:30;;;;;;;5.00;3.90;;;;;;;7.59;100.00;98247.16;5046005;28;20213;-80
2020/12/13 09:06:59;;;;;;;4.20;3.80;;;;;;;7.63;100.00;98250.44;5071847;28;20223;-81
2020/12/13 09:09:30;;;;;;;6.30;5.70;;;;;;;7.57;100.00;98259.56;5066341;28;20235;-80
2020/12/13 09:11:58;;;;;;;6.63;6.00;;;;;;;7.58;100.00;98273.53;5079106;28;20699;-81
2020/12/13 09:14:30;;;;;;;6.73;6.13;;;;;;;7.61;100.00;98269.88;5038417;28;20206;-79
2020/12/13 09:17:00;;;;;;;5.60;5.10;;;;;;;7.82;100.00;98286.84;5079011;28;20222;-82
2020/12/13 09:19:29;;;;;;;6.43;5.77;;;;;;;7.90;100.00;98287.16;5078044;28;20199;-88
2020/12/13 09:22:00;;;;;;;5.50;4.73;;;;;;;7.95;100.00;98288.53;5068657;28;20310;-81
2020/12/13 09:24:31;;;;;;;6.97;6.27;;;;;;;7.93;100.00;98289.59;5085518;28;20252;-79
2020/12/13 09:27:05;;;;;;;8.53;5.50;;;;;;;7.83;100.00;98291.97;5070131;28;20309;-83
2020/12/13 09:29:34;;;;;;;6.43;5.53;;;;;;;7.87;100.00;98290.00;5066454;28;20239;-80
2020/12/13 09:32:02;;;;;;;5.70;5.13;;;;;;;7.90;100.00;98298.53;5087675;28;20206;-77
2020/12/13 09:34:30;;;;;;;3.90;3.60;;;;;;;8.06;100.00;98301.78;5065785;28;20299;-80
2020/12/13 09:36:57;;;;;;;5.77;4.87;;;;;;;8.03;100.00;98302.00;5077595;28;20208;-83
2020/12/13 09:39:29;;;;;;;4.93;4.47;;;;;;;8.01;100.00;98309.16;5059054;28;20199;-78
2020/12/13 09:41:57;;;;;;;5.07;4.57;;;;;;;8.05;100.00;98315.06;5062420;28;20329;-82
2020/12/13 09:44:26;;;;;;;4.37;3.97;;;;;;;8.04;100.00;98308.09;5062406;28;20235;-79
2020/12/13 09:46:54;;;;;;;4.70;4.30;;;;;;;8.13;100.00;98318.00;5067257;28;20264;-84
2020/12/13 09:49:24;;;;;;;5.60;4.90;;;;;;;8.24;100.00;98318.13;5085281;28;20227;-81
2020/12/13 09:51:56;;;;;;;4.87;4.47;;;;;;;8.18;100.00;98323.78;5084813;28;20214;-82
2020/12/13 09:54:25;;;;;;;4.53;4.13;;;;;;;8.29;100.00;98323.94;5064477;28;20470;-84
2020/12/13 09:56:52;;;;;;;4.17;3.60;;;;;;;8.47;99.50;98317.41;5067696;28;20202;-80
2020/12/13 09:59:20;;;;;;;5.77;4.20;;;;;;;8.45;97.56;98323.72;5044725;28;20255;-80
2020/12/13 10:01:48;;;;;;;4.17;3.10;;;;;;;8.55;98.46;98325.63;5066131;28;20227;-80
2020/12/13 10:04:16;;;;;;;3.23;2.93;;;;;;;8.51;98.00;98321.50;5065032;28;20279;-81
2020/12/13 10:06:56;;;;;;;4.43;3.83;;;;;;;8.02;96.36;98321.38;5082976;28;20200;-80
2020/12/13 10:09:23;;;;;;;3.43;3.13;;;;;;;8.09;96.05;98321.78;5077647;28;20210;-80
2020/12/13 10:11:51;;;;;;;2.90;2.70;;;;;;;8.26;98.00;98324.09;5073015;28;20208;-79
2020/12/13 10:14:22;;;;;;;3.73;2.90;;;;;;;8.24;96.14;98328.66;5078061;28;20201;-79
2020/12/13 10:16:51;;;;;;;4.93;3.10;;;;;;;8.37;96.45;98328.66;5047225;28;20235;-79
2020/12/13 10:19:19;;;;;;;4.07;2.80;;;;;;;8.48;95.80;98324.34;5083628;28;20264;-80
2020/12/13 10:21:47;;;;;;;3.53;3.13;;;;;;;8.39;97.70;98334.69;5064130;28;20236;-77
2020/12/13 10:24:14;;;;;;;2.80;2.57;;;;;;;8.42;97.75;98332.66;5085324;28;20213;-78
2020/12/13 10:26:41;;;;;;;3.53;3.07;;;;;;;8.43;96.63;98328.25;5071637;28;20203;-78
2020/12/13 10:29:09;;;;;;;4.00;3.23;;;;;;;8.45;96.00;98335.06;5080465;28;20298;-78
2020/12/13 10:31:38;;;;;;;3.17;2.87;;;;;;;8.54;95.27;98334.44;5072049;28;20316;-79
2020/12/13 10:34:09;;;;;;;3.23;2.37;;;;;;;8.47;96.68;98327.94;5046609;28;20214;-78
2020/12/13 10:36:38;;;;;;;2.77;2.57;;;;;;;8.43;96.15;98331.72;5080283;28;20592;-79
2020/12/13 10:39:09;;;;;;;5.23;3.00;;;;;;;8.36;95.16;98330.47;5078870;28;20275;-77
2020/12/13 10:41:38;;;;;;;3.27;2.80;;;;;;;8.29;96.48;98331.84;5067710;28;20221;-79
2020/12/13 10:44:05;;;;;;;4.43;3.33;;;;;;;8.23;95.03;98324.31;5062645;28;20234;-80
2020/12/13 10:46:32;;;;;;;2.93;2.47;;;;;;;8.29;95.20;98323.94;5045526;28;20277;-79
2020/12/13 10:48:59;;;;;;;4.63;2.67;;;;;;;8.26;94.89;98318.00;5062924;28;20417;-79
2020/12/13 10:51:27;;;;;;;5.03;2.47;;;;;;;8.50;94.87;98322.47;5057749;28;20896;-78
2020/12/13 10:53:54;;;;;;;4.23;2.70;;;;;;;8.50;93.81;98325.09;5057297;28;20200;-79
2020/12/13 10:56:23;;;;;;;8.20;4.97;;;;;;;8.52;93.74;98319.72;5061951;28;20282;-79
2020/12/13 10:58:50;;;;;;;12.23;8.00;;;;;;;8.58;93.32;98320.13;5059177;28;20561;-79
2020/12/13 11:01:17;;;;;;;11.97;7.63;;;;;;;8.66;92.79;98323.06;5058806;28;20427;-79
2020/12/13 11:03:45;;;;;;;14.20;8.67;;;;;;;8.62;91.78;98329.47;5062673;28;20233;-78
2020/12/13 11:06:12;;;;;;;21.83;11.23;;;;;;;8.71;91.13;98325.38;5056597;28;20554;-81
2020/12/13 11:08:40;;;;;;;13.63;8.70;;;;;;;9.38;90.51;98315.22;5058002;28;20207;-79
2020/12/13 11:11:07;;;;;;;14.30;8.03;;;;;;;9.86;85.81;98325.63;5059266;28;20286;-79
2020/12/13 11:13:35;;;;;;;3.43;2.37;;;;;;;9.99;82.90;98325.56;5062954;28;20276;-80
2020/12/13 11:16:02;;;;;;;4.07;2.70;;;;;;;9.58;85.59;98328.66;5044492;28;20211;-78
2020/12/13 11:18:31;;;;;;;4.00;2.37;;;;;;;9.27;88.55;98334.47;5072012;28;20277;-77
2020/12/13 11:20:59;;;;;;;4.70;2.03;;;;;;;9.22;87.47;98333.97;5063684;28;20222;-78
2020/12/13 11:23:26;;;;;;;2.47;2.27;;;;;;;9.12;87.02;98338.25;5064413;28;20685;-80
2020/12/13 11:25:54;;;;;;;3.53;2.47;;;;;;;9.08;89.05;98340.25;5060281;28;20190;-77
2020/12/13 11:28:21;;;;;;;3.90;2.43;;;;;;;9.17;89.17;98338.75;5056843;28;20208;-78
2020/12/13 11:30:49;;;;;;;2.90;2.17;;;;;;;9.04;89.86;98335.31;5056633;28;20216;-75
2020/12/13 11:33:16;;;;;;;3.27;2.50;;;;;;;8.66;89.24;98333.59;5056958;28;20229;-78
2020/12/13 11:35:44;;;;;;;3.20;2.60;;;;;;;8.86;90.57;98336.63;5062861;28;20204;-81
2020/12/13 11:38:11;;;;;;;3.00;2.30;;;;;;;8.77;89.91;98345.16;5061985;28;21842;-82
2020/12/13 11:40:38;;;;;;;2.73;2.30;;;;;;;8.91;89.98;98342.41;5051064;28;20197;-80
2020/12/13 11:43:05;;;;;;;2.40;2.20;;;;;;;8.92;90.23;98338.81;5059258;28;20307;-79
2020/12/13 11:45:32;;;;;;;4.17;2.80;;;;;;;8.79;90.33;98349.38;5061474;28;20200;-80